Woodworth, Louisiana
Current Conditions -  °F | °C
As of 11:53 PM on Friday 19 Dec 2014 (Local Time) from KAEX Reporting Station
Haze Haze  
Wind Chill:   Ceiling: 700
Heat Index:   Visibility: 5mi
Dew Point:   Wind: 7mph
Humidity: 97%   Direction: 10°N
Pressure: 30.14"   Gusts: NA
Location:  31.15°N, 92.5°W
Report Text: KAEX 200553Z 01006KT 5SM BR OVC007 08/08 A3014 RMK AO2 RAE53 CIG 005V010 SLP211 P0000 60000 T00830078 10089 20083 401110083 50003
Loading
Personal Weather Stations






























Interactive Weather Map New forecast layout! Learn more

10-Day Weather Forecast

Advertisements
Track Severe Weather on mobile